createdAt,value
2022-09-04T00:01:20.762Z,11.30
2022-09-04T00:11:55.346Z,12.50
2022-09-04T00:22:35.895Z,11.60
2022-09-04T00:33:12.240Z,8.70
2022-09-04T00:44:17.112Z,8.40
2022-09-04T00:54:54.914Z,9.20
2022-09-04T01:05:40.373Z,11.80
2022-09-04T01:16:16.517Z,12.20
2022-09-04T01:26:56.202Z,9.90
2022-09-04T01:37:42.055Z,9.70
2022-09-04T01:48:14.352Z,11.60
2022-09-04T01:58:49.829Z,10.30
2022-09-04T02:09:33.078Z,9.30
2022-09-04T02:20:10.151Z,10.60
2022-09-04T02:30:46.343Z,9.30
2022-09-04T02:41:32.073Z,9.10
2022-09-04T02:52:13.899Z,9.30
2022-09-04T03:02:50.699Z,8.10
2022-09-04T03:13:28.442Z,9.70
2022-09-04T03:24:02.544Z,8.80
2022-09-04T03:34:41.475Z,10.30
2022-09-04T03:45:22.956Z,10.70
2022-09-04T03:56:13.848Z,10.20
2022-09-04T04:06:50.644Z,9.70
2022-09-04T04:17:39.686Z,9.20
2022-09-04T04:28:25.647Z,9.80
2022-09-04T04:39:12.146Z,9.10
2022-09-04T04:49:59.150Z,11.00
2022-09-04T05:00:37.509Z,11.80
2022-09-04T05:11:12.952Z,11.10
2022-09-04T05:21:50.833Z,12.20
2022-09-04T05:43:06.246Z,12.90
2022-09-04T05:54:06.439Z,10.30
2022-09-04T06:04:59.100Z,9.70
2022-09-04T06:15:38.365Z,12.20
2022-09-04T06:26:47.400Z,12.10
2022-09-04T06:37:26.371Z,10.90
2022-09-04T06:48:07.777Z,9.90
2022-09-04T06:59:17.358Z,8.80
2022-09-04T07:09:49.348Z,9.10
2022-09-04T07:20:24.620Z,10.40
2022-09-04T07:31:00.134Z,7.80
2022-09-04T07:41:42.472Z,9.70
2022-09-04T07:52:21.751Z,8.40
2022-09-04T08:03:17.947Z,9.00
2022-09-04T08:14:12.596Z,7.20
2022-09-04T08:25:05.410Z,8.20
2022-09-04T08:35:37.103Z,9.20
2022-09-04T08:46:35.636Z,9.40
2022-09-04T08:57:46.437Z,11.20
2022-09-04T09:08:37.628Z,11.90
2022-09-04T09:19:41.701Z,10.20
2022-09-04T09:30:16.822Z,11.20
2022-09-04T09:41:02.794Z,18.40
2022-09-04T09:52:04.394Z,12.00
2022-09-04T10:03:10.649Z,14.10
2022-09-04T10:14:03.211Z,12.40
2022-09-04T10:25:25.481Z,13.90
2022-09-04T10:36:05.346Z,14.70
2022-09-04T10:46:40.830Z,12.20
2022-09-04T10:57:25.828Z,9.90
2022-09-04T11:08:36.695Z,10.60
2022-09-04T11:19:39.733Z,14.80
2022-09-04T11:30:18.616Z,11.80
2022-09-04T11:41:44.318Z,15.30
2022-09-04T11:52:37.680Z,14.90
2022-09-04T12:03:44.677Z,18.60
2022-09-04T12:14:29.361Z,17.00
2022-09-04T12:25:19.800Z,17.20
2022-09-04T12:36:27.745Z,18.60
2022-09-04T12:47:20.248Z,16.50
2022-09-04T12:58:01.082Z,10.20
2022-09-04T13:08:40.907Z,7.90
2022-09-04T13:19:17.655Z,8.30
2022-09-04T13:30:03.075Z,8.00
2022-09-04T13:40:55.370Z,6.70
2022-09-04T13:51:34.267Z,7.40
2022-09-04T14:02:10.405Z,7.20
2022-09-04T14:12:55.736Z,7.10
2022-09-04T14:23:34.260Z,10.40
2022-09-04T14:34:14.121Z,9.40
2022-09-04T14:44:56.621Z,6.50
2022-09-04T14:55:31.927Z,9.70
2022-09-04T15:06:08.652Z,7.90
2022-09-04T15:16:52.435Z,7.90
2022-09-04T15:27:38.621Z,6.00
2022-09-04T15:38:21.297Z,6.00
2022-09-04T15:48:59.934Z,8.40
2022-09-04T15:59:38.610Z,6.70
2022-09-04T16:10:15.447Z,6.40
2022-09-04T16:20:55.480Z,7.60
2022-09-04T16:31:34.975Z,6.20
2022-09-04T16:42:19.516Z,6.30
2022-09-04T16:53:12.836Z,6.30
2022-09-04T17:04:12.756Z,6.70
2022-09-04T17:14:47.614Z,7.00
2022-09-04T17:28:58.918Z,8.30
2022-09-04T17:40:37.325Z,7.20
2022-09-04T17:47:27.159Z,8.10
2022-09-04T17:58:02.679Z,8.10
2022-09-04T18:08:44.983Z,9.20
2022-09-04T18:19:23.153Z,8.10
2022-09-04T18:32:33.162Z,9.00
2022-09-04T18:45:55.735Z,7.50
2022-09-04T18:51:51.812Z,8.10
2022-09-04T19:02:25.429Z,9.90
2022-09-04T19:13:06.382Z,7.80
2022-09-04T19:23:40.932Z,8.50
2022-09-04T19:34:20.891Z,6.90
2022-09-04T19:46:11.591Z,8.20
2022-09-04T19:55:49.624Z,8.80
2022-09-04T20:06:26.948Z,8.30
2022-09-04T20:17:10.898Z,8.30
2022-09-04T20:27:46.338Z,8.90
2022-09-04T20:38:26.504Z,7.60
2022-09-04T20:52:52.985Z,9.60
2022-09-04T21:03:11.325Z,10.40
2022-09-04T21:10:54.997Z,7.70
2022-09-04T21:21:38.572Z,13.60
2022-09-04T21:32:37.737Z,13.10
2022-09-04T21:43:35.481Z,13.70
2022-09-04T21:56:39.458Z,12.00
2022-09-04T22:05:19.747Z,12.30
2022-09-04T22:16:00.919Z,12.30
2022-09-04T22:26:50.432Z,9.30
2022-09-04T22:38:06.315Z,11.60
2022-09-04T22:49:11.660Z,11.10
2022-09-04T23:00:09.879Z,9.40
2022-09-04T23:13:59.326Z,11.50
2022-09-04T23:26:43.054Z,10.10
2022-09-04T23:33:46.074Z,9.40
2022-09-04T23:44:58.386Z,11.30
2022-09-04T23:55:58.296Z,10.60
